createdAt,value
2022-08-04T00:02:41.398Z,27.90
2022-08-04T00:05:29.271Z,27.90
2022-08-04T00:08:16.896Z,27.80
2022-08-04T00:10:50.405Z,27.90
2022-08-04T00:13:24.248Z,27.80
2022-08-04T00:15:58.714Z,27.80
2022-08-04T00:18:34.976Z,27.70
2022-08-04T00:21:06.836Z,27.70
2022-08-04T00:24:11.831Z,27.70
2022-08-04T00:26:23.186Z,27.60
2022-08-04T00:28:53.584Z,27.60
2022-08-04T00:31:53.630Z,27.50
2022-08-04T00:34:13.131Z,27.50
2022-08-04T00:36:43.093Z,27.50
2022-08-04T00:39:14.080Z,27.50
2022-08-04T00:42:01.276Z,27.50
2022-08-04T00:44:55.825Z,27.40
2022-08-04T00:47:49.926Z,27.30
2022-08-04T00:50:31.991Z,27.40
2022-08-04T00:53:06.657Z,27.30
2022-08-04T00:55:51.718Z,27.30
2022-08-04T00:58:47.311Z,27.30
2022-08-04T01:01:45.519Z,27.30
2022-08-04T01:04:36.521Z,27.30
2022-08-04T01:07:23.715Z,27.20
2022-08-04T01:10:07.768Z,27.20
2022-08-04T01:12:59.041Z,27.20
2022-08-04T01:16:05.392Z,27.20
2022-08-04T01:18:53.170Z,27.20
2022-08-04T01:21:29.524Z,27.10
2022-08-04T01:24:24.762Z,27.10
2022-08-04T01:27:04.402Z,27.10
2022-08-04T01:29:46.841Z,27.00
2022-08-04T01:32:14.372Z,27.00
2022-08-04T01:34:51.802Z,27.00
2022-08-04T01:37:50.134Z,26.90
2022-08-04T01:40:17.388Z,27.00
2022-08-04T01:42:46.166Z,27.00
2022-08-04T01:45:15.082Z,27.00
2022-08-04T01:47:53.699Z,27.00
2022-08-04T01:50:21.993Z,26.90
2022-08-04T01:52:52.515Z,26.90
2022-08-04T01:55:19.947Z,26.90
2022-08-04T01:57:52.121Z,26.80
2022-08-04T02:00:29.087Z,26.70
2022-08-04T02:02:57.592Z,26.80
2022-08-04T02:06:03.082Z,26.80
2022-08-04T02:08:32.742Z,26.80
2022-08-04T02:11:20.855Z,26.70
2022-08-04T02:14:40.142Z,26.70
2022-08-04T02:17:41.724Z,26.70
2022-08-04T02:20:31.077Z,26.60
2022-08-04T02:23:09.836Z,26.60
2022-08-04T02:26:04.994Z,26.60
2022-08-04T02:29:14.982Z,26.60
2022-08-04T02:32:05.381Z,26.60
2022-08-04T02:34:50.791Z,26.50
2022-08-04T02:37:18.587Z,26.50
2022-08-04T02:39:49.489Z,26.40
2022-08-04T02:42:17.407Z,26.40
2022-08-04T02:44:50.830Z,26.40
2022-08-04T02:47:24.708Z,26.40
2022-08-04T02:50:14.592Z,26.40
2022-08-04T02:52:59.028Z,26.40
2022-08-04T02:55:29.048Z,26.40
2022-08-04T02:57:58.787Z,26.40
2022-08-04T03:00:26.604Z,26.40
2022-08-04T03:03:06.306Z,26.30
2022-08-04T03:06:00.739Z,26.30
2022-08-04T03:08:54.644Z,26.30
2022-08-04T03:11:36.458Z,26.30
2022-08-04T03:14:30.302Z,26.30
2022-08-04T03:17:03.737Z,26.20
2022-08-04T03:20:11.720Z,26.20
2022-08-04T03:23:15.293Z,26.20
2022-08-04T03:26:19.190Z,26.20
2022-08-04T03:29:10.405Z,26.20
2022-08-04T03:32:14.184Z,26.00
2022-08-04T03:35:22.980Z,26.20
2022-08-04T03:47:58.676Z,25.90
2022-08-04T03:51:35.109Z,26.00
2022-08-04T03:54:40.117Z,25.90
2022-08-04T03:57:34.587Z,25.90
2022-08-04T04:00:09.449Z,25.90
2022-08-04T04:02:59.659Z,25.80
2022-08-04T04:06:23.635Z,26.00
2022-08-04T04:09:29.348Z,25.80
2022-08-04T04:12:30.600Z,25.70
2022-08-04T04:15:25.326Z,25.60
2022-08-04T04:18:11.159Z,25.40
2022-08-04T04:21:04.014Z,25.30
2022-08-04T04:23:58.086Z,25.20
2022-08-04T04:26:46.815Z,25.10
2022-08-04T04:29:19.119Z,25.10
2022-08-04T04:31:57.877Z,25.10
2022-08-04T04:35:05.331Z,25.20
2022-08-04T04:38:10.266Z,25.10
2022-08-04T04:40:58.672Z,25.00
2022-08-04T04:43:52.794Z,24.80
2022-08-04T04:46:35.635Z,24.70
2022-08-04T04:49:26.014Z,24.60
2022-08-04T04:52:10.032Z,24.50
2022-08-04T04:54:41.681Z,24.60
2022-08-04T04:57:18.743Z,24.50
2022-08-04T04:59:53.955Z,24.50
2022-08-04T05:02:32.839Z,24.60
2022-08-04T05:05:38.557Z,24.60
2022-08-04T05:08:54.022Z,24.70
2022-08-04T05:11:45.420Z,24.70
2022-08-04T05:14:38.595Z,24.70
2022-08-04T05:17:23.777Z,24.80
2022-08-04T05:20:19.662Z,24.80
2022-08-04T05:22:58.309Z,24.70
2022-08-04T05:25:36.386Z,24.80
2022-08-04T05:28:12.784Z,24.80
2022-08-04T05:30:48.722Z,24.80
2022-08-04T05:33:29.332Z,24.80
2022-08-04T05:36:23.523Z,24.80
2022-08-04T05:38:52.508Z,24.70
2022-08-04T05:41:21.452Z,24.70
2022-08-04T05:43:49.995Z,24.80
2022-08-04T05:46:18.444Z,24.90
2022-08-04T05:48:46.978Z,25.10
2022-08-04T05:51:15.392Z,25.00
2022-08-04T05:53:44.466Z,25.20
2022-08-04T05:56:14.449Z,25.10
2022-08-04T05:58:43.289Z,25.00
2022-08-04T06:01:12.700Z,24.90
2022-08-04T06:03:40.120Z,24.90
2022-08-04T06:06:09.595Z,24.80
2022-08-04T06:08:36.667Z,24.80
2022-08-04T06:11:08.021Z,24.90
2022-08-04T06:13:50.942Z,25.00
2022-08-04T06:16:30.294Z,24.90
2022-08-04T06:20:02.310Z,24.90
2022-08-04T06:21:50.338Z,25.00
2022-08-04T06:24:24.448Z,25.40
2022-08-04T06:26:53.359Z,25.40
2022-08-04T06:29:27.037Z,25.50
2022-08-04T06:32:27.917Z,25.40
2022-08-04T06:34:46.637Z,25.30
2022-08-04T06:37:43.113Z,25.10
2022-08-04T06:40:29.377Z,24.90
2022-08-04T06:42:52.645Z,24.90
2022-08-04T06:45:21.177Z,25.00
2022-08-04T06:47:49.515Z,25.10
2022-08-04T06:51:31.982Z,25.10
2022-08-04T06:53:05.074Z,25.10
2022-08-04T06:55:33.504Z,25.00
2022-08-04T06:58:03.410Z,25.10
2022-08-04T07:00:32.966Z,25.30
2022-08-04T07:03:00.443Z,25.40
2022-08-04T07:05:28.554Z,25.40
2022-08-04T07:07:58.411Z,25.60
2022-08-04T07:10:28.160Z,25.80
2022-08-04T07:12:59.940Z,25.80
2022-08-04T07:15:27.713Z,25.70
2022-08-04T07:18:00.465Z,25.60
2022-08-04T07:20:34.040Z,25.70
2022-08-04T07:23:07.687Z,25.50
2022-08-04T07:26:01.029Z,25.60
2022-08-04T07:28:26.025Z,25.50
2022-08-04T07:30:54.514Z,25.60
2022-08-04T07:33:22.686Z,25.90
2022-08-04T07:36:09.480Z,25.90
2022-08-04T07:38:51.025Z,26.00
2022-08-04T07:41:41.037Z,26.00
2022-08-04T07:44:10.403Z,25.70
2022-08-04T07:46:37.919Z,25.60
2022-08-04T07:49:06.779Z,25.90
2022-08-04T07:51:35.827Z,26.10
2022-08-04T07:54:05.175Z,26.30
2022-08-04T07:56:34.123Z,26.40
2022-08-04T07:59:02.556Z,26.30
2022-08-04T08:01:30.555Z,26.20
2022-08-04T08:03:58.813Z,26.40
2022-08-04T08:06:33.091Z,26.50
2022-08-04T08:09:02.114Z,26.50
2022-08-04T08:12:35.112Z,26.50
2022-08-04T08:14:30.332Z,26.60
2022-08-04T08:17:00.307Z,26.70
2022-08-04T08:19:27.371Z,26.50
2022-08-04T08:21:59.281Z,26.40
2022-08-04T08:24:34.801Z,26.30
2022-08-04T08:27:04.379Z,26.40
2022-08-04T08:29:34.457Z,26.60
2022-08-04T08:32:07.736Z,26.80
2022-08-04T08:34:37.503Z,27.00
2022-08-04T08:37:20.274Z,27.20
2022-08-04T08:39:59.595Z,27.60
2022-08-04T08:42:39.749Z,27.70
2022-08-04T08:45:33.894Z,27.60
2022-08-04T08:48:15.089Z,27.40
2022-08-04T08:51:00.876Z,27.20
2022-08-04T08:53:49.297Z,27.30
2022-08-04T08:56:40.433Z,27.60
2022-08-04T08:59:19.188Z,27.50
2022-08-04T09:02:03.493Z,27.30
2022-08-04T09:05:02.579Z,27.10
2022-08-04T09:07:38.590Z,27.30
2022-08-04T09:10:43.379Z,27.50
2022-08-04T09:13:32.875Z,27.20
2022-08-04T09:16:14.620Z,27.10
2022-08-04T09:18:47.691Z,27.40
2022-08-04T09:21:32.061Z,27.40
2022-08-04T09:24:36.491Z,27.50
2022-08-04T09:27:13.436Z,27.40
2022-08-04T09:29:43.304Z,27.10
2022-08-04T09:32:34.647Z,26.90
2022-08-04T09:35:17.136Z,26.80
2022-08-04T09:38:08.775Z,26.60
2022-08-04T09:40:53.364Z,26.70
2022-08-04T09:43:59.022Z,26.80
2022-08-04T09:46:47.026Z,26.80
2022-08-04T09:49:23.485Z,26.60
2022-08-04T09:52:05.794Z,26.40
2022-08-04T09:54:38.869Z,26.30
2022-08-04T09:57:22.208Z,26.40
2022-08-04T10:00:20.519Z,26.40
2022-08-04T10:03:11.576Z,26.80
2022-08-04T10:06:09.323Z,26.80
2022-08-04T10:09:13.481Z,26.70
2022-08-04T10:12:17.922Z,26.60
2022-08-04T10:14:57.766Z,26.50
2022-08-04T10:17:52.350Z,26.50
2022-08-04T10:20:58.265Z,26.60
2022-08-04T10:24:01.773Z,26.60
2022-08-04T10:26:42.805Z,26.90
2022-08-04T10:29:26.466Z,27.00
2022-08-04T10:32:18.240Z,27.10
2022-08-04T10:35:15.867Z,27.10
2022-08-04T10:38:00.229Z,27.20
2022-08-04T10:40:54.441Z,27.20
2022-08-04T10:44:04.921Z,27.30
2022-08-04T10:46:37.568Z,27.50
2022-08-04T10:49:23.177Z,27.70
2022-08-04T10:51:58.672Z,28.00
2022-08-04T10:54:32.972Z,27.90
2022-08-04T10:57:07.059Z,28.00
2022-08-04T11:00:03.547Z,28.00
2022-08-04T11:02:41.856Z,27.90
2022-08-04T11:06:06.170Z,27.90
2022-08-04T11:08:37.612Z,27.90
2022-08-04T11:11:16.826Z,28.10
2022-08-04T11:13:57.881Z,28.30
2022-08-04T11:19:53.537Z,28.50
2022-08-04T11:22:27.361Z,28.50
2022-08-04T11:28:35.290Z,28.70
2022-08-04T11:40:13.685Z,29.00
2022-08-04T11:42:50.876Z,29.10
2022-08-04T11:45:28.007Z,29.20
2022-08-04T11:48:00.710Z,29.40
2022-08-04T11:50:30.289Z,29.40
2022-08-04T11:52:59.503Z,29.60
2022-08-04T11:55:28.654Z,29.60
2022-08-04T11:57:56.890Z,29.40
2022-08-04T12:00:28.187Z,29.20
2022-08-04T12:03:13.613Z,29.40
2022-08-04T12:06:20.959Z,29.30
2022-08-04T12:09:02.446Z,29.20
2022-08-04T12:11:44.331Z,29.20
2022-08-04T12:14:30.771Z,29.10
2022-08-04T12:17:01.854Z,29.20
2022-08-04T12:20:03.207Z,29.20
2022-08-04T12:22:41.044Z,29.20
2022-08-04T12:25:16.481Z,29.30
2022-08-04T12:27:58.097Z,29.60
2022-08-04T12:30:54.134Z,29.60
2022-08-04T12:34:04.191Z,29.60
2022-08-04T12:36:56.003Z,29.60
2022-08-04T12:39:26.062Z,29.40
2022-08-04T12:42:02.236Z,29.20
2022-08-04T12:44:39.018Z,29.30
2022-08-04T12:47:27.160Z,29.30
2022-08-04T12:50:02.393Z,29.30
2022-08-04T12:53:04.029Z,29.20
2022-08-04T12:55:35.232Z,29.20
2022-08-04T12:58:11.043Z,29.20
2022-08-04T13:00:41.629Z,29.30
2022-08-04T13:03:15.638Z,29.20
2022-08-04T13:05:45.478Z,29.20
2022-08-04T13:08:13.879Z,29.10
2022-08-04T13:10:47.104Z,28.90
2022-08-04T13:13:21.510Z,29.00
2022-08-04T13:15:57.834Z,29.00
2022-08-04T13:18:31.871Z,28.80
2022-08-04T13:21:19.637Z,28.60
2022-08-04T13:24:09.905Z,28.90
2022-08-04T13:26:54.615Z,29.00
2022-08-04T13:29:59.660Z,29.00
2022-08-04T13:32:18.705Z,28.90
2022-08-04T13:34:49.485Z,28.90
2022-08-04T13:37:26.441Z,28.90
2022-08-04T13:39:56.513Z,28.80
2022-08-04T13:42:26.498Z,29.00
2022-08-04T13:44:57.943Z,29.10
2022-08-04T13:47:34.494Z,29.20
2022-08-04T13:50:13.199Z,29.00
2022-08-04T13:52:42.245Z,29.00
2022-08-04T13:55:25.900Z,29.20
2022-08-04T13:58:21.487Z,29.30
2022-08-04T14:00:54.994Z,29.20
2022-08-04T14:03:53.434Z,29.20
2022-08-04T14:06:34.829Z,29.50
2022-08-04T14:09:09.497Z,29.70
2022-08-04T14:12:10.949Z,29.70
2022-08-04T14:14:30.941Z,29.60
2022-08-04T14:17:20.006Z,29.90
2022-08-04T14:19:50.551Z,30.00
2022-08-04T14:22:26.778Z,29.80
2022-08-04T14:24:59.785Z,29.70
2022-08-04T14:27:29.586Z,29.70
2022-08-04T14:29:57.059Z,29.70
2022-08-04T14:32:26.502Z,29.60
2022-08-04T14:34:53.864Z,29.60
2022-08-04T14:37:22.659Z,29.50
2022-08-04T14:40:17.888Z,29.70
2022-08-04T14:42:55.712Z,29.80
2022-08-04T14:45:54.733Z,29.80
2022-08-04T14:48:22.651Z,29.70
2022-08-04T14:50:54.000Z,29.70
2022-08-04T14:53:26.371Z,29.70
2022-08-04T14:55:57.176Z,29.80
2022-08-04T14:58:33.694Z,29.90
2022-08-04T15:01:09.667Z,30.10
2022-08-04T15:03:50.685Z,30.20
2022-08-04T15:06:23.265Z,30.40
2022-08-04T15:08:52.765Z,30.50
2022-08-04T15:11:23.045Z,30.80
2022-08-04T15:13:53.174Z,31.00
2022-08-04T15:16:22.001Z,30.90
2022-08-04T15:18:50.450Z,30.80
2022-08-04T15:21:17.861Z,30.70
2022-08-04T15:23:44.980Z,30.60
2022-08-04T15:26:37.782Z,30.60
2022-08-04T15:29:16.699Z,30.80
2022-08-04T15:32:04.693Z,31.20
2022-08-04T15:34:46.713Z,31.50
2022-08-04T15:37:19.373Z,31.60
2022-08-04T15:39:56.860Z,31.30
2022-08-04T15:42:42.169Z,31.00
2022-08-04T15:46:37.394Z,30.90
2022-08-04T15:48:11.791Z,31.10
2022-08-04T15:51:15.058Z,31.40
2022-08-04T15:54:02.298Z,31.70
2022-08-04T15:56:29.717Z,31.90
2022-08-04T15:58:57.789Z,32.10
2022-08-04T16:01:25.511Z,32.20
2022-08-04T16:03:59.707Z,32.20
2022-08-04T16:06:29.611Z,32.40
2022-08-04T16:09:01.241Z,32.40
2022-08-04T16:11:37.241Z,32.30
2022-08-04T16:14:04.923Z,32.40
2022-08-04T16:16:46.827Z,32.50
2022-08-04T16:19:51.865Z,32.80
2022-08-04T16:22:35.830Z,32.90
2022-08-04T16:25:02.965Z,32.90
2022-08-04T16:27:42.015Z,32.70
2022-08-04T16:30:15.202Z,32.40
2022-08-04T16:32:46.861Z,32.20
2022-08-04T16:35:21.642Z,31.90
2022-08-04T16:37:48.761Z,31.80
2022-08-04T16:40:38.988Z,31.60
2022-08-04T16:43:13.414Z,31.40
2022-08-04T16:45:43.272Z,31.20
2022-08-04T16:48:12.105Z,31.10
2022-08-04T16:51:06.805Z,31.00
2022-08-04T16:53:53.358Z,31.00
2022-08-04T16:56:33.899Z,30.90
2022-08-04T16:59:12.232Z,30.80
2022-08-04T17:01:50.484Z,30.70
2022-08-04T17:04:18.326Z,30.80
2022-08-04T17:06:49.379Z,30.60
2022-08-04T17:09:18.627Z,30.70
2022-08-04T17:11:47.610Z,30.70
2022-08-04T17:14:30.882Z,30.80
2022-08-04T17:17:01.815Z,30.80
2022-08-04T17:19:28.964Z,30.70
2022-08-04T17:22:04.392Z,30.70
2022-08-04T17:24:34.633Z,30.80
2022-08-04T17:27:02.007Z,30.80
2022-08-04T17:29:43.622Z,30.70
2022-08-04T17:32:22.268Z,30.70
2022-08-04T17:34:57.279Z,30.50
2022-08-04T17:37:52.526Z,30.50
2022-08-04T17:40:18.502Z,30.40
2022-08-04T17:44:03.118Z,30.30
2022-08-04T17:46:28.140Z,30.40
2022-08-04T17:49:01.024Z,30.40
2022-08-04T17:52:05.945Z,30.20
2022-08-04T17:54:40.147Z,30.20
2022-08-04T17:57:21.688Z,30.20
2022-08-04T17:59:57.908Z,30.10
2022-08-04T18:02:33.093Z,30.00
2022-08-04T18:05:06.846Z,30.00
2022-08-04T18:08:38.068Z,29.90
2022-08-04T18:10:51.828Z,29.90
2022-08-04T18:13:25.786Z,29.90
2022-08-04T18:16:05.104Z,29.90
2022-08-04T18:18:32.299Z,29.80
2022-08-04T18:21:03.202Z,29.70
2022-08-04T18:23:33.545Z,29.70
2022-08-04T18:26:03.701Z,29.70
2022-08-04T18:28:33.110Z,29.70
2022-08-04T18:31:00.747Z,29.70
2022-08-04T18:33:40.643Z,29.70
2022-08-04T18:36:32.842Z,29.60
2022-08-04T18:39:11.976Z,29.50
2022-08-04T18:42:03.977Z,29.40
2022-08-04T18:44:29.397Z,29.30
2022-08-04T18:47:22.571Z,29.40
2022-08-04T18:52:33.178Z,29.50
2022-08-04T18:55:01.884Z,29.60
2022-08-04T19:00:20.159Z,29.20
2022-08-04T19:02:47.733Z,29.10
2022-08-04T19:05:17.405Z,28.90
2022-08-04T19:08:11.096Z,28.70
2022-08-04T19:10:32.672Z,28.70
2022-08-04T19:13:01.930Z,28.70
2022-08-04T19:15:34.526Z,28.80
2022-08-04T19:18:02.466Z,28.80
2022-08-04T19:20:39.539Z,28.70
2022-08-04T19:24:30.267Z,28.60
2022-08-04T19:25:59.095Z,28.50
2022-08-04T19:28:33.944Z,28.40
2022-08-04T19:31:08.996Z,28.30
2022-08-04T19:33:58.189Z,28.10
2022-08-04T19:36:29.615Z,27.80
2022-08-04T19:39:00.673Z,27.20
2022-08-04T19:41:29.870Z,26.80
2022-08-04T19:43:58.424Z,26.70
2022-08-04T19:46:28.573Z,26.60
2022-08-04T19:48:58.881Z,26.50
2022-08-04T19:51:29.055Z,26.40
2022-08-04T19:54:03.935Z,26.30
2022-08-04T19:56:40.510Z,26.00
2022-08-04T19:59:10.275Z,25.70
2022-08-04T20:01:44.415Z,25.40
2022-08-04T20:04:14.342Z,25.10
2022-08-04T20:06:42.663Z,24.70
2022-08-04T20:09:24.652Z,24.40
2022-08-04T20:11:56.585Z,24.10
2022-08-04T20:14:32.807Z,23.80
2022-08-04T20:17:02.719Z,23.60
2022-08-04T20:19:30.394Z,23.30
2022-08-04T20:21:58.139Z,23.00
2022-08-04T20:24:41.651Z,22.80
2022-08-04T20:27:16.148Z,22.80
2022-08-04T20:29:49.005Z,22.70
2022-08-04T20:32:27.068Z,22.70
2022-08-04T20:34:56.830Z,22.70
2022-08-04T20:37:25.811Z,22.80
2022-08-04T20:40:12.618Z,22.70
2022-08-04T20:42:40.944Z,22.50
2022-08-04T20:45:16.384Z,22.50
2022-08-04T20:47:54.008Z,22.50
2022-08-04T20:50:30.273Z,22.50
2022-08-04T20:52:58.216Z,22.50
2022-08-04T20:55:26.199Z,22.50
2022-08-04T20:58:02.749Z,22.40
2022-08-04T21:00:31.548Z,22.40
2022-08-04T21:02:59.654Z,22.40
2022-08-04T21:05:26.744Z,22.30
2022-08-04T21:07:57.214Z,22.20
2022-08-04T21:10:27.623Z,22.30
2022-08-04T21:12:54.926Z,22.40
2022-08-04T21:15:50.652Z,22.30
2022-08-04T21:18:14.257Z,22.20
2022-08-04T21:20:43.265Z,22.10
2022-08-04T21:23:10.680Z,22.10
2022-08-04T21:25:42.760Z,22.20
2022-08-04T21:28:10.946Z,22.20
2022-08-04T21:30:54.091Z,22.20
2022-08-04T21:33:23.331Z,22.30
2022-08-04T21:35:53.973Z,22.30
2022-08-04T21:38:28.017Z,22.20
2022-08-04T21:40:58.283Z,22.10
2022-08-04T21:43:29.874Z,22.10
2022-08-04T21:46:10.151Z,22.10
2022-08-04T21:48:38.849Z,22.30
2022-08-04T21:51:57.366Z,22.40
2022-08-04T21:54:05.541Z,22.50
2022-08-04T21:56:33.337Z,22.40
2022-08-04T21:59:00.331Z,22.20
2022-08-04T22:01:50.477Z,21.90
2022-08-04T22:04:15.074Z,21.80
2022-08-04T22:06:42.183Z,21.80
2022-08-04T22:09:18.849Z,21.70
2022-08-04T22:11:50.732Z,21.80
2022-08-04T22:14:29.100Z,21.80
2022-08-04T22:17:01.575Z,21.70
2022-08-04T22:19:49.967Z,21.80
2022-08-04T22:25:13.424Z,22.00
2022-08-04T22:28:00.854Z,21.90
2022-08-04T22:30:36.525Z,21.80
2022-08-04T22:33:07.549Z,21.50
2022-08-04T22:35:43.358Z,21.50
2022-08-04T22:38:23.967Z,21.60
2022-08-04T22:41:01.117Z,21.40
2022-08-04T22:43:32.804Z,21.30
2022-08-04T22:46:06.373Z,21.30
2022-08-04T22:48:36.348Z,21.30
2022-08-04T22:51:05.609Z,21.30
2022-08-04T22:53:33.309Z,21.30
2022-08-04T22:56:10.117Z,21.40
2022-08-04T22:58:44.880Z,21.40
2022-08-04T23:01:14.926Z,21.40
2022-08-04T23:03:50.958Z,21.50
2022-08-04T23:06:24.573Z,21.60
2022-08-04T23:08:52.432Z,21.70
2022-08-04T23:11:19.532Z,21.80
2022-08-04T23:13:47.340Z,21.70
2022-08-04T23:16:16.972Z,21.60
2022-08-04T23:18:49.091Z,21.40
2022-08-04T23:21:17.280Z,21.30
2022-08-04T23:24:00.818Z,21.20
2022-08-04T23:26:30.963Z,21.30
2022-08-04T23:28:58.478Z,21.30
2022-08-04T23:31:40.434Z,21.20
2022-08-04T23:34:08.711Z,21.10
2022-08-04T23:36:35.713Z,21.10
2022-08-04T23:39:05.720Z,21.10
2022-08-04T23:41:54.054Z,21.20
2022-08-04T23:44:24.433Z,21.30
2022-08-04T23:47:04.446Z,21.30
2022-08-04T23:49:42.332Z,21.40
2022-08-04T23:52:27.822Z,21.40
2022-08-04T23:54:59.302Z,21.50
2022-08-04T23:57:30.922Z,21.50
